• Join FlightAware (Why Join?)
  • Login
  • US Flag 
02:21PM EDT


 

Airport Tracker/Info


-or-


 

Live Flight TrackerFlight Track Log ✈ GJS3657 ✈ 11-Jun-2013 ✈ KALB - KORD

Flight Track Log - Related Links

Times and Time Zones

All times are in EDT time to prevent confusion due to time zone crossing. See the GJS3657 flight status page for this flight to view local times or setup timezone preferences in your user account.

Time Position Orientation Groundspeed Altitude Reporting Facility
EDT Latitude Longitude Course Direction KTS MPH feet Rate Location/Type
07:08AM 42.7297 -73.8081 254° West 148 170 1,700  Level Boston Center
07:09AM 42.7189 -73.8586 254° West 211 243 5,000 2,400 Climbing Boston Center
07:10AM 42.7517 -73.8906 324° Northwest 235 270 6,100 2,040 Climbing Boston Center
07:11AM 42.8092 -73.9514 322° Northwest 248 285 8,500 2,280 Climbing Boston Center
07:12AM 42.8750 -74.0211 322° Northwest 267 307 10,700 1,800 Climbing Boston Center
07:13AM 42.9428 -74.0964 321° Northwest 314 361 12,200 1,800 Climbing Boston Center
07:14AM 43.0267 -74.1925 320° Northwest 357 411 14,400 1,980 Climbing Boston Center
07:15AM 43.0647 -74.3017 296° West 353 406 16,200 2,100 Climbing Boston Center
07:16AM 43.0744 -74.4581 275° West 364 419 18,600 2,040 Climbing Boston Center
07:17AM 43.0822 -74.6006 274° West 375 432 20,300 1,560 Climbing Boston Center
07:18AM 43.0897 -74.7486 274° West 387 445 21,800 1,380 Climbing Boston Center
07:19AM 43.0989 -74.9056 275° West 400 460 23,100 1,260 Climbing Boston Center
07:20AM 43.1058 -75.0650 273° West 412 474 24,400 1,260 Climbing Boston Center
07:21AM 43.1167 -75.2278 275° West 425 489 25,700 1,320 Climbing Boston Center
07:22AM 43.1250 -75.3931 274° West 431 496 27,100 1,200 Climbing Boston Center
07:23AM 43.1314 -75.5386 273° West 437 503 28,100 1,140 Climbing Boston Center
07:24AM 43.1394 -75.7069 274° West 442 509 29,400 900 Climbing Boston Center
07:25AM 43.1469 -75.8694 274° West 442 509 30,000 300 Climbing Boston Center
07:26AM 43.1544 -76.0322 274° West 442 509 30,100 540 Climbing Boston Center
07:27AM 43.1500 -76.3000 269° West 430 495 31,600 660 Climbing Toronto Center
07:28AM 43.1500 -76.4500 270° West 440 506 32,000 180 Climbing Toronto Center
07:29AM 43.1500 -76.6333 270° West 440 506 32,000  Level Toronto Center
07:30AM 43.1500 -76.7833 270° West 430 495 32,000  Level Toronto Center
07:31AM 43.1500 -76.9667 270° West 420 483 32,000  Level Toronto Center
07:32AM 43.1500 -77.1000 270° West 420 483 32,000 420 Level Toronto Center
07:33AM 43.1333 -77.2500 261° West 420 483 32,900 960 Climbing Toronto Center
07:34AM 43.1500 -77.4333 277° West 420 483 34,000 960 Climbing Toronto Center
07:35AM 43.1500 -77.5833 270° West 420 483 34,900 960 Climbing Toronto Center
07:36AM 43.1333 -77.7667 263° West 420 483 36,000 540 Climbing Toronto Center
07:37AM 43.1833 -77.9000 297° West 420 483 36,000  Level Toronto Center
07:38AM 43.2833 -77.9833 329° Northwest 420 483 36,000  Level Toronto Center
07:39AM 43.3500 -78.1167 305° West 420 483 36,000  Level Toronto Center
07:40AM 43.3500 -78.2500 270° West 430 495 36,100 600 Climbing Toronto Center
07:41AM 43.2833 -78.4167 241° Southwest 440 506 37,300 900 Climbing Toronto Center
07:42AM 43.2333 -78.5333 240° Southwest 430 495 38,000 300 Climbing Toronto Center
07:43AM 43.1500 -78.6667 229° Southwest 430 495 38,000  Level Toronto Center
07:44AM 43.0667 -78.7833 226° Southwest 430 495 38,000  Level Toronto Center
07:45AM 43.0500 -78.9500 262° West 430 495 38,000  Level Toronto Center
07:46AM 43.0500 -79.1167 270° West 430 495 38,000  Level Toronto Center
07:47AM 43.0500 -79.2667 270° West 420 483 38,000  Level Toronto Center
07:48AM 43.0500 -79.4333 270° West 420 483 38,000  Level Toronto Center
07:49AM 43.0500 -79.5833 270° West 400 460 38,000  Level Toronto Center
07:50AM 43.0500 -79.7500 270° West 410 472 38,000  Level Toronto Center
07:51AM 43.0333 -79.9000 261° West 410 472 38,000  Level Toronto Center
07:52AM 43.0500 -80.0667 278° West 400 460 38,000  Level Toronto Center
07:53AM 43.0333 -80.2000 260° West 400 460 38,000  Level Toronto Center
07:54AM 43.0500 -80.3667 278° West 410 472 38,000  Level Toronto Center
07:55AM 43.0833 -80.5167 287° West 410 472 38,000  Level Toronto Center
07:56AM 43.1167 -80.6667 287° West 400 460 38,000  Level Toronto Center
07:57AM 43.1500 -80.7833 291° West 390 449 38,000  Level Toronto Center
07:58AM 43.1833 -80.9333 287° West 400 460 38,000  Level Toronto Center
07:59AM 43.2167 -81.0667 289° West 400 460 38,000  Level Toronto Center
08:00AM 43.2500 -81.2333 285° West 400 460 38,000  Level Toronto Center
08:01AM 43.3000 -81.3667 297° West 400 460 38,000  Level Toronto Center
08:02AM 43.3333 -81.5167 287° West 400 460 38,000  Level Toronto Center
08:03AM 43.3667 -81.6500 289° West 390 449 38,000  Level Toronto Center
08:04AM 43.3833 -81.7833 280° West 390 449 38,000  Level Toronto Center
08:05AM 43.3667 -81.9500 262° West 390 449 38,000  Level Toronto Center
08:06AM 43.3500 -82.0833 260° West 400 460 38,000  Level Toronto Center
08:07AM 43.3500 -82.2500 270° West 400 460 38,000  Level Toronto Center
08:08AM 43.3500 -82.4000 270° West 400 460 38,000 -600 Level Toronto Center
08:09AM 43.3333 -82.5667 262° West 400 460 36,900 -1,020 Descending Toronto Center
08:10AM 43.3167 -82.7000 260° West 400 460 36,000 -480 Descending Toronto Center
08:11AM 43.3000 -82.8667 262° West 400 460 36,000  Level Toronto Center
08:12AM 43.2786 -83.0156 259° West 406 467 36,000  Level Cleveland Center
08:13AM 43.2419 -83.1625 251° West 417 480 36,000  Level Cleveland Center
08:14AM 43.2075 -83.3061 252° West 417 480 36,000  Level Cleveland Center
08:15AM 43.1706 -83.4525 251° West 412 474 36,000 -180 Level Cleveland Center
08:16AM 43.1333 -83.6044 251° West 418 481 35,700 -660 Descending Cleveland Center
08:17AM 43.0961 -83.7478 250° West 418 481 34,700 -900 Descending Cleveland Center
08:18AM 43.0178 -83.8744 230° Southwest 418 481 34,000 -360 Descending Cleveland Center
08:19AM 42.9369 -83.9978 228° Southwest 433 498 34,000  Level Cleveland Center
08:20AM 42.9072 -84.1492 255° West 416 479 34,000 -540 Level Cleveland Center
08:21AM 42.9281 -84.2867 282° West 385 443 33,000 -960 Descending Cleveland Center
08:22AM 42.9514 -84.3981 286° West 367 422 32,200 -540 Descending Chicago Center
08:23AM 42.9622 -84.5361 276° West 381 438 32,000 -120 Descending Chicago Center
08:24AM 42.9378 -84.6850 257° West 400 460 32,000  Level Chicago Center
08:25AM 42.9106 -84.8336 256° West 404 465 32,000  Level Chicago Center
08:26AM 42.8831 -84.9833 256° West 406 467 32,000 -120 Level Chicago Center
08:27AM 42.8503 -85.1603 256° West 402 463 31,800 -900 Descending Chicago Center
08:29AM 42.8222 -85.3108 256° West 408 470 30,200 -1,620 Descending Chicago Center
08:30AM 42.7944 -85.4558 255° West 399 459 28,500 -1,680 Descending Chicago Center
08:31AM 42.7689 -85.5953 256° West 383 441 26,800 -1,680 Descending Chicago Center
08:32AM 42.7444 -85.7328 256° West 374 430 25,100 -1,680 Descending Chicago Center
08:33AM 42.7200 -85.8692 256° West 370 426 23,400 -1,740 Descending Chicago Center
08:34AM 42.6931 -86.0133 256° West 385 443 21,600 -1,680 Descending Chicago Center
08:35AM 42.6678 -86.1539 256° West 384 442 20,000 -1,020 Descending Chicago Center
08:36AM 42.6367 -86.3178 256° West 375 432 19,500 -540 Descending Chicago Center
08:37AM 42.6106 -86.4553 256° West 374 430 19,000 -1,080 Descending Chicago Center
08:38AM 42.5856 -86.5919 256° West 374 430 17,300 -1,860 Descending Chicago Center
08:39AM 42.5636 -86.7206 257° West 352 405 15,200 -1,800 Descending Chicago Center
08:40AM 42.5342 -86.8242 249° West 297 342 13,600 -1,680 Descending Chicago Center
08:41AM 42.5081 -86.9228 250° West 281 323 11,800 -1,920 Descending Chicago Center
08:42AM 42.4775 -87.0336 250° West 263 303 9,700 -1,380 Descending Chicago Center
08:43AM 42.4506 -87.1283 249° West 268 308 9,000 -360 Descending Chicago Center
08:44AM 42.4244 -87.2242 250° West 271 312 9,000 -180 Level Chicago Center
08:45AM 42.3967 -87.3203 249° West 273 314 8,700 -960 Descending Chicago Center
08:46AM 42.3683 -87.4247 250° West 274 315 7,100 -1,320 Descending Chicago Center
08:47AM 42.3372 -87.5114 244° Southwest 263 303 6,000 -540 Descending Chicago Center
08:48AM 42.2586 -87.5369 194° South 280 322 6,000  Level Chicago Center
08:49AM 42.1900 -87.5597 194° South 258 297 6,000  Level Chicago Center
08:50AM 42.1253 -87.5792 193° South 241 277 6,000 -480 Level Chicago Center
08:51AM 42.0608 -87.5997 193° South 240 276 5,100 -1,200 Descending Chicago Center
08:52AM 42.0189 -87.6739 233° Southwest 221 254 3,600 -1,020 Descending Chicago Center
08:53AM 42.0053 -87.7444 255° West 211 243 3,100 -720 Descending Chicago Center
08:54AM 42.0033 -87.8019 267° West 181 208 2,200 -780 Descending Chicago Center
08:55AM 42.0022 -87.8558 268° West 161 185 1,500 -540 Descending Chicago Center
08:56AM 42.0039 -87.9058 273° West 151 174 1,200 -300 Descending Chicago Center
08:58AM 41.9817 -87.9067 206° Southwest  Level Estimated